aviador You're here:

SCCI Decoded Metar

PUNTA ARENAS in CHILE
Report Time2018-06-25 11:00:00
UTC Time2018-06-25 11:47:19
Flight Rules vfr VFR
Wind270° at 14 kt
W.Decomp.*RWY 25: 13.9 kt HW 1.7 kt RCW
RWY 30: 10.2 kt HW 9.5 kt LCW
RWY 19: 5.5 kt HW 12.9 kt RCW
W.Rank270° ranks 3
Current wind is below 270° avg. (16.4)
Visibility9999 m
Phenomena:N/A
Clouds:Scattered 030 Hf
Scattered 110 Hf
Expected CloudBase > 800 ft AGL from Temp-Dew spread
CeilingNone
Temp02°C (ISA -13)
Dew Point00°C (87% RH)
AAT-5.0°C
QNH0994 hPa
Density Alt-696 ft
Elevation121 ft
Report Wrong Elevation
Raw Report
SCCI 251100Z 27014KT 9999 SCT030 SCT110 02/M00 Q0994 NOSIG=

Extra information for SCCI:More info

Metar Taf Metar & Taf Last 4 Metars F.Rules Stats Wind Profile Meteogram Temp Stats Airport Information Weather charts Add Link Nearby VenuesMetar ALERT Operation Metar Decoded Social comments